Terminal Aerodrome Forecast
Issued by NWS

Home | Current Version | Previous Version | Text Only | Print | Product List | Glossary On
Versions: 1 2 3 4 5 6 7 8 9 10 11 12 13
000
FTUS46 KSTO 061738
TAFSAC
TAF
KSAC 061738Z 0618/0718 19005KT P6SM VCSH OVC050
     FM062000 18006KT P6SM OVC050
     FM071200 20006KT P6SM -SHRA OVC020=

USA.gov is the U.S. government's official web portal to all federal, state and local government web resources and services.